sensor_id;sensor_type;location;lat;lon;timestamp;pressure;altitude;pressure_sealevel;temperature;humidity
14273;BME280;7220;49.450;11.052;2022-12-20T00:01:28;98865.63;;;0.88;100.00
14273;BME280;7220;49.450;11.052;2022-12-20T00:05:28;98876.09;;;0.90;100.00
14273;BME280;7220;49.450;11.052;2022-12-20T00:09:29;98854.28;;;0.94;100.00
14273;BME280;7220;49.450;11.052;2022-12-20T00:13:29;98848.19;;;0.95;100.00
14273;BME280;7220;49.450;11.052;2022-12-20T00:17:30;98853.38;;;1.01;100.00
14273;BME280;7220;49.450;11.052;2022-12-20T00:21:31;98848.16;;;1.01;100.00
14273;BME280;7220;49.450;11.052;2022-12-20T00:25:32;98832.44;;;1.01;100.00
14273;BME280;7220;49.450;11.052;2022-12-20T00:29:32;98878.69;;;1.02;100.00
14273;BME280;7220;49.450;11.052;2022-12-20T00:33:35;98861.19;;;1.04;100.00
14273;BME280;7220;49.450;11.052;2022-12-20T00:37:36;98853.38;;;1.01;100.00
14273;BME280;7220;49.450;11.052;2022-12-20T00:41:37;98854.22;;;1.05;100.00
14273;BME280;7220;49.450;11.052;2022-12-20T00:45:37;98855.09;;;1.05;100.00
14273;BME280;7220;49.450;11.052;2022-12-20T00:49:37;98864.69;;;1.08;100.00
14273;BME280;7220;49.450;11.052;2022-12-20T00:53:38;98873.41;;;1.10;100.00
14273;BME280;7220;49.450;11.052;2022-12-20T00:57:39;98862.91;;;1.13;100.00
14273;BME280;7220;49.450;11.052;2022-12-20T01:01:39;98855.09;;;1.08;100.00
14273;BME280;7220;49.450;11.052;2022-12-20T01:05:49;98849.81;;;1.15;100.00
14273;BME280;7220;49.450;11.052;2022-12-20T01:09:50;98821.06;;;1.07;100.00
14273;BME280;7220;49.450;11.052;2022-12-20T01:13:53;98839.31;;;1.16;100.00
14273;BME280;7220;49.450;11.052;2022-12-20T01:17:53;98866.38;;;1.18;100.00
14273;BME280;7220;49.450;11.052;2022-12-20T01:21:54;98848.94;;;1.19;100.00
14273;BME280;7220;49.450;11.052;2022-12-20T01:25:57;98832.34;;;1.20;100.00
14273;BME280;7220;49.450;11.052;2022-12-20T01:29:57;98806.16;;;1.20;100.00
14273;BME280;7220;49.450;11.052;2022-12-20T01:33:58;98828.88;;;1.18;100.00
14273;BME280;7220;49.450;11.052;2022-12-20T01:37:58;98816.69;;;1.04;100.00
14273;BME280;7220;49.450;11.052;2022-12-20T01:41:59;98828.88;;;1.10;100.00
14273;BME280;7220;49.450;11.052;2022-12-20T01:45:59;98834.13;;;1.10;100.00
14273;BME280;7220;49.450;11.052;2022-12-20T01:50:00;98818.47;;;1.02;100.00
14273;BME280;7220;49.450;11.052;2022-12-20T01:54:10;98837.63;;;1.04;100.00
14273;BME280;7220;49.450;11.052;2022-12-20T01:58:15;98852.50;;;1.01;100.00
14273;BME280;7220;49.450;11.052;2022-12-20T02:02:17;98854.28;;;0.94;100.00
14273;BME280;7220;49.450;11.052;2022-12-20T02:06:20;98829.88;;;0.87;100.00
14273;BME280;7220;49.450;11.052;2022-12-20T02:10:23;98805.47;;;0.84;100.00
14273;BME280;7220;49.450;11.052;2022-12-20T02:18:52;98819.44;;;0.86;100.00
14273;BME280;7220;49.450;11.052;2022-12-20T02:31:27;98774.03;;;0.96;100.00
14273;BME280;7220;49.450;11.052;2022-12-20T02:35:32;98746.06;;;0.98;100.00
14273;BME280;7220;49.450;11.052;2022-12-20T02:39:35;98754.78;;;1.02;100.00
14273;BME280;7220;49.450;11.052;2022-12-20T02:43:38;98759.13;;;1.04;100.00
14273;BME280;7220;49.450;11.052;2022-12-20T02:48:04;98754.75;;;1.06;100.00
14273;BME280;7220;49.450;11.052;2022-12-20T02:52:06;98751.25;;;1.07;100.00
14273;BME280;7220;49.450;11.052;2022-12-20T02:56:14;98757.41;;;1.03;100.00
14273;BME280;7220;49.450;11.052;2022-12-20T03:00:18;98762.59;;;1.09;100.00
14273;BME280;7220;49.450;11.052;2022-12-20T03:04:25;98746.00;;;1.09;100.00
14273;BME280;7220;49.450;11.052;2022-12-20T03:08:27;98763.44;;;1.10;100.00
14273;BME280;7220;49.450;11.052;2022-12-20T03:12:27;98772.19;;;1.09;100.00
14273;BME280;7220;49.450;11.052;2022-12-20T03:16:27;98769.56;;;1.07;100.00
14273;BME280;7220;49.450;11.052;2022-12-20T03:20:28;98744.28;;;1.05;100.00
14273;BME280;7220;49.450;11.052;2022-12-20T03:24:28;98726.81;;;1.05;100.00
14273;BME280;7220;49.450;11.052;2022-12-20T03:28:29;98759.09;;;1.10;100.00
14273;BME280;7220;49.450;11.052;2022-12-20T03:32:29;98778.28;;;1.11;100.00
14273;BME280;7220;49.450;11.052;2022-12-20T03:36:30;98772.19;;;1.10;100.00
14273;BME280;7220;49.450;11.052;2022-12-20T03:40:30;98746.91;;;1.06;100.00
14273;BME280;7220;49.450;11.052;2022-12-20T03:44:30;98766.06;;;1.12;100.00
14273;BME280;7220;49.450;11.052;2022-12-20T03:48:31;98764.31;;;1.15;100.00
14273;BME280;7220;49.450;11.052;2022-12-20T03:52:31;98773.06;;;1.09;100.00
14273;BME280;7220;49.450;11.052;2022-12-20T03:56:31;98762.53;;;1.16;100.00
14273;BME280;7220;49.450;11.052;2022-12-20T04:00:32;98752.13;;;1.09;100.00
14273;BME280;7220;49.450;11.052;2022-12-20T04:04:32;98749.44;;;1.17;100.00
14273;BME280;7220;49.450;11.052;2022-12-20T04:08:33;98753.81;;;1.17;100.00
14273;BME280;7220;49.450;11.052;2022-12-20T04:12:33;98736.38;;;1.16;100.00
14273;BME280;7220;49.450;11.052;2022-12-20T04:16:33;98739.03;;;1.09;100.00
14273;BME280;7220;49.450;11.052;2022-12-20T04:20:34;98740.81;;;1.06;100.00
14273;BME280;7220;49.450;11.052;2022-12-20T04:24:34;98735.59;;;1.01;100.00
14273;BME280;7220;49.450;11.052;2022-12-20T04:28:35;98738.16;;;1.07;100.00
14273;BME280;7220;49.450;11.052;2022-12-20T04:32:35;98725.94;;;1.06;100.00
14273;BME280;7220;49.450;11.052;2022-12-20T04:36:35;98723.31;;;1.09;100.00
14273;BME280;7220;49.450;11.052;2022-12-20T04:40:36;98725.94;;;1.09;100.00
14273;BME280;7220;49.450;11.052;2022-12-20T04:44:36;98729.44;;;1.05;100.00
14273;BME280;7220;49.450;11.052;2022-12-20T04:48:36;98728.56;;;1.09;100.00
14273;BME280;7220;49.450;11.052;2022-12-20T04:52:39;98708.50;;;1.08;100.00
14273;BME280;7220;49.450;11.052;2022-12-20T04:56:58;98706.69;;;1.17;100.00
14273;BME280;7220;49.450;11.052;2022-12-20T05:00:58;98695.34;;;1.15;100.00
14273;BME280;7220;49.450;11.052;2022-12-20T05:04:59;98692.72;;;1.18;100.00
14273;BME280;7220;49.450;11.052;2022-12-20T05:08:59;98697.06;;;1.17;100.00
14273;BME280;7220;49.450;11.052;2022-12-20T05:13:00;98694.47;;;1.16;100.00
14273;BME280;7220;49.450;11.052;2022-12-20T05:17:00;98678.81;;;1.09;100.00
14273;BME280;7220;49.450;11.052;2022-12-20T05:21:01;98682.25;;;1.15;100.00
14273;BME280;7220;49.450;11.052;2022-12-20T05:25:19;98688.38;;;1.14;100.00
14273;BME280;7220;49.450;11.052;2022-12-20T05:29:38;98682.31;;;1.12;100.00
14273;BME280;7220;49.450;11.052;2022-12-20T05:33:39;98687.53;;;1.12;100.00
14273;BME280;7220;49.450;11.052;2022-12-20T05:37:39;98662.22;;;1.09;100.00
14273;BME280;7220;49.450;11.052;2022-12-20T05:41:39;98653.47;;;1.15;100.00
14273;BME280;7220;49.450;11.052;2022-12-20T05:45:44;98657.81;;;1.16;100.00
14273;BME280;7220;49.450;11.052;2022-12-20T05:49:44;98677.88;;;1.20;100.00
14273;BME280;7220;49.450;11.052;2022-12-20T05:53:44;98674.38;;;1.22;100.00
14273;BME280;7220;49.450;11.052;2022-12-20T05:57:45;98681.28;;;1.26;100.00
14273;BME280;7220;49.450;11.052;2022-12-20T06:01:45;98669.06;;;1.29;100.00
14273;BME280;7220;49.450;11.052;2022-12-20T06:05:45;98671.72;;;1.27;100.00
14273;BME280;7220;49.450;11.052;2022-12-20T06:09:46;98675.16;;;1.32;100.00
14273;BME280;7220;49.450;11.052;2022-12-20T06:13:46;98676.88;;;1.33;100.00
14273;BME280;7220;49.450;11.052;2022-12-20T06:17:46;98662.09;;;1.28;100.00
14273;BME280;7220;49.450;11.052;2022-12-20T06:21:47;98670.78;;;1.34;100.00
14273;BME280;7220;49.450;11.052;2022-12-20T06:25:47;98653.28;;;1.38;100.00
14273;BME280;7220;49.450;11.052;2022-12-20T06:29:47;98655.03;;;1.39;100.00
14273;BME280;7220;49.450;11.052;2022-12-20T06:33:51;98667.16;;;1.45;100.00
14273;BME280;7220;49.450;11.052;2022-12-20T06:37:51;98658.44;;;1.46;100.00
14273;BME280;7220;49.450;11.052;2022-12-20T06:41:51;98670.66;;;1.48;100.00
14273;BME280;7220;49.450;11.052;2022-12-20T06:45:51;98683.81;;;1.37;100.00
14273;BME280;7220;49.450;11.052;2022-12-20T06:49:52;98680.19;;;1.52;100.00
14273;BME280;7220;49.450;11.052;2022-12-20T06:53:52;98680.16;;;1.57;100.00
14273;BME280;7220;49.450;11.052;2022-12-20T06:57:52;98706.28;;;1.63;100.00
14273;BME280;7220;49.450;11.052;2022-12-20T07:01:54;98725.50;;;1.65;100.00
14273;BME280;7220;49.450;11.052;2022-12-20T07:05:54;98710.66;;;1.61;100.00
14273;BME280;7220;49.450;11.052;2022-12-20T07:09:55;98703.69;;;1.63;100.00
14273;BME280;7220;49.450;11.052;2022-12-20T07:13:56;98700.97;;;1.69;100.00
14273;BME280;7220;49.450;11.052;2022-12-20T07:17:56;98709.72;;;1.71;100.00
14273;BME280;7220;49.450;11.052;2022-12-20T07:21:57;98688.03;;;1.57;100.00
14273;BME280;7220;49.450;11.052;2022-12-20T07:25:59;98677.53;;;1.57;100.00
14273;BME280;7220;49.450;11.052;2022-12-20T07:29:59;98681.81;;;1.66;100.00
14273;BME280;7220;49.450;11.052;2022-12-20T07:34:00;98664.31;;;1.71;100.00
14273;BME280;7220;49.450;11.052;2022-12-20T07:38:00;98665.13;;;1.73;100.00
14273;BME280;7220;49.450;11.052;2022-12-20T07:42:01;98661.63;;;1.74;100.00
14273;BME280;7220;49.450;11.052;2022-12-20T07:46:02;98677.34;;;1.74;100.00
14273;BME280;7220;49.450;11.052;2022-12-20T07:50:03;98667.72;;;1.78;100.00
14273;BME280;7220;49.450;11.052;2022-12-20T07:54:14;98656.41;;;1.76;100.00
14273;BME280;7220;49.450;11.052;2022-12-20T07:58:18;98652.81;;;1.83;100.00
14273;BME280;7220;49.450;11.052;2022-12-20T08:02:26;98662.38;;;1.87;100.00
14273;BME280;7220;49.450;11.052;2022-12-20T08:06:28;98644.00;;;1.90;100.00
14273;BME280;7220;49.450;11.052;2022-12-20T08:10:29;98638.69;;;1.96;100.00
14273;BME280;7220;49.450;11.052;2022-12-20T08:14:30;98642.16;;;1.97;100.00
14273;BME280;7220;49.450;11.052;2022-12-20T08:18:30;98637.75;;;2.00;100.00
14273;BME280;7220;49.450;11.052;2022-12-20T08:22:31;98626.41;;;2.00;100.00
14273;BME280;7220;49.450;11.052;2022-12-20T08:26:36;98621.88;;;2.13;100.00
14273;BME280;7220;49.450;11.052;2022-12-20T08:30:36;98617.44;;;2.18;100.00
14273;BME280;7220;49.450;11.052;2022-12-20T08:34:37;98630.50;;;2.24;100.00
14273;BME280;7220;49.450;11.052;2022-12-20T08:38:38;98615.56;;;2.29;100.00
14273;BME280;7220;49.450;11.052;2022-12-20T08:42:39;98617.22;;;2.35;100.00
14273;BME280;7220;49.450;11.052;2022-12-20T08:46:39;98598.81;;;2.40;100.00
14273;BME280;7220;49.450;11.052;2022-12-20T08:50:39;98602.19;;;2.48;100.00
14273;BME280;7220;49.450;11.052;2022-12-20T08:54:40;98592.44;;;2.56;100.00
14273;BME280;7220;49.450;11.052;2022-12-20T08:58:41;98614.13;;;2.67;100.00
14273;BME280;7220;49.450;11.052;2022-12-20T09:02:42;98605.34;;;2.72;100.00
14273;BME280;7220;49.450;11.052;2022-12-20T09:06:42;98606.88;;;2.85;100.00
14273;BME280;7220;49.450;11.052;2022-12-20T09:10:42;98611.00;;;2.98;100.00
14273;BME280;7220;49.450;11.052;2022-12-20T09:14:43;98603.00;;;3.08;100.00
14273;BME280;7220;49.450;11.052;2022-12-20T09:18:51;98599.38;;;3.15;100.00
14273;BME280;7220;49.450;11.052;2022-12-20T09:22:51;98597.59;;;3.17;100.00
14273;BME280;7220;49.450;11.052;2022-12-20T09:26:51;98614.13;;;3.24;100.00
14273;BME280;7220;49.450;11.052;2022-12-20T09:30:57;98619.28;;;3.27;100.00
14273;BME280;7220;49.450;11.052;2022-12-20T09:34:57;98608.78;;;3.27;100.00
14273;BME280;7220;49.450;11.052;2022-12-20T09:38:57;98613.13;;;3.29;100.00
14273;BME280;7220;49.450;11.052;2022-12-20T09:42:58;98599.06;;;3.34;100.00
14273;BME280;7220;49.450;11.052;2022-12-20T09:47:03;98580.59;;;3.37;100.00
14273;BME280;7220;49.450;11.052;2022-12-20T09:55:37;98579.69;;;3.38;100.00
14273;BME280;7220;49.450;11.052;2022-12-20T09:59:41;98589.19;;;3.46;100.00
14273;BME280;7220;49.450;11.052;2022-12-20T10:03:42;98563.03;;;3.40;100.00
14273;BME280;7220;49.450;11.052;2022-12-20T10:07:49;98565.63;;;3.42;100.00
14273;BME280;7220;49.450;11.052;2022-12-20T10:16:31;98551.59;;;3.41;100.00
14273;BME280;7220;49.450;11.052;2022-12-20T10:24:58;98525.16;;;3.51;100.00
14273;BME280;7220;49.450;11.052;2022-12-20T10:29:00;98520.53;;;3.63;100.00
14273;BME280;7220;49.450;11.052;2022-12-20T10:33:01;98514.09;;;3.77;100.00
14273;BME280;7220;49.450;11.052;2022-12-20T10:37:12;98509.44;;;3.90;100.00
14273;BME280;7220;49.450;11.052;2022-12-20T10:41:19;98513.38;;;4.11;100.00
14273;BME280;7220;49.450;11.052;2022-12-20T10:49:31;98478.06;;;4.21;99.04
14273;BME280;7220;49.450;11.052;2022-12-20T10:53:32;98495.50;;;4.25;99.00
14273;BME280;7220;49.450;11.052;2022-12-20T10:57:33;98497.03;;;4.36;98.28
14273;BME280;7220;49.450;11.052;2022-12-20T11:01:35;98489.03;;;4.40;98.04
14273;BME280;7220;49.450;11.052;2022-12-20T11:05:36;98480.19;;;4.43;97.75
14273;BME280;7220;49.450;11.052;2022-12-20T11:09:37;98486.13;;;4.51;97.80
14273;BME280;7220;49.450;11.052;2022-12-20T11:13:38;98486.81;;;4.60;97.37
14273;BME280;7220;49.450;11.052;2022-12-20T11:17:42;98470.44;;;4.81;96.57
14273;BME280;7220;49.450;11.052;2022-12-20T11:30:47;98465.06;;;5.20;95.67
14273;BME280;7220;49.450;11.052;2022-12-20T11:35:05;98476.44;;;5.21;95.44
14273;BME280;7220;49.450;11.052;2022-12-20T11:43:35;98470.22;;;5.24;94.77
14273;BME280;7220;49.450;11.052;2022-12-20T11:51:48;98445.13;;;5.10;94.94
14273;BME280;7220;49.450;11.052;2022-12-20T11:55:52;98420.00;;;4.97;94.96
14273;BME280;7220;49.450;11.052;2022-12-20T11:59:59;98426.09;;;4.99;95.54
14273;BME280;7220;49.450;11.052;2022-12-20T12:04:17;98419.16;;;4.96;96.09
14273;BME280;7220;49.450;11.052;2022-12-20T12:08:33;98425.28;;;4.97;96.38
14273;BME280;7220;49.450;11.052;2022-12-20T12:12:46;98419.22;;;4.95;95.89
14273;BME280;7220;49.450;11.052;2022-12-20T12:16:51;98407.47;;;5.05;96.56
14273;BME280;7220;49.450;11.052;2022-12-20T12:21:24;98401.69;;;5.24;96.00
14273;BME280;7220;49.450;11.052;2022-12-20T12:25:25;98379.97;;;5.45;95.57
14273;BME280;7220;49.450;11.052;2022-12-20T12:29:27;98382.25;;;5.58;95.76
14273;BME280;7220;49.450;11.052;2022-12-20T12:33:36;98381.16;;;5.65;94.51
14273;BME280;7220;49.450;11.052;2022-12-20T12:37:53;98386.66;;;5.85;93.76
14273;BME280;7220;49.450;11.052;2022-12-20T12:42:09;98388.25;;;5.91;92.62
14273;BME280;7220;49.450;11.052;2022-12-20T12:46:24;98383.84;;;5.92;92.49
14273;BME280;7220;49.450;11.052;2022-12-20T12:50:28;98379.50;;;5.89;92.23
14273;BME280;7220;49.450;11.052;2022-12-20T12:54:37;98369.16;;;5.83;91.87
14273;BME280;7220;49.450;11.052;2022-12-20T12:58:38;98363.41;;;5.70;92.35
14273;BME280;7220;49.450;11.052;2022-12-20T13:02:49;98333.78;;;5.62;92.72
14273;BME280;7220;49.450;11.052;2022-12-20T13:06:56;98325.84;;;5.63;94.07
14273;BME280;7220;49.450;11.052;2022-12-20T13:10:58;98349.59;;;5.62;94.41
14273;BME280;7220;49.450;11.052;2022-12-20T13:14:59;98340.13;;;5.56;94.99
14273;BME280;7220;49.450;11.052;2022-12-20T13:19:03;98345.50;;;5.53;94.66
14273;BME280;7220;49.450;11.052;2022-12-20T13:43:41;98330.34;;;5.31;95.79
14273;BME280;7220;49.450;11.052;2022-12-20T13:47:47;98348.03;;;5.26;96.01
14273;BME280;7220;49.450;11.052;2022-12-20T13:52:11;98344.75;;;5.19;95.59
14273;BME280;7220;49.450;11.052;2022-12-20T13:56:31;98365.00;;;5.17;96.48
14273;BME280;7220;49.450;11.052;2022-12-20T14:00:33;98363.41;;;5.12;96.11
14273;BME280;7220;49.450;11.052;2022-12-20T14:04:42;98372.53;;;5.00;96.62
14273;BME280;7220;49.450;11.052;2022-12-20T14:08:46;98398.88;;;5.00;97.00
14273;BME280;7220;49.450;11.052;2022-12-20T14:12:49;98369.97;;;4.97;98.15
14273;BME280;7220;49.450;11.052;2022-12-20T14:16:50;98329.97;;;4.84;97.69
14273;BME280;7220;49.450;11.052;2022-12-20T14:21:02;98330.03;;;4.81;98.20
14273;BME280;7220;49.450;11.052;2022-12-20T14:25:05;98324.91;;;4.76;98.83
14273;BME280;7220;49.450;11.052;2022-12-20T14:29:11;98312.09;;;4.64;98.96
14273;BME280;7220;49.450;11.052;2022-12-20T14:33:25;98304.94;;;4.69;99.07
14273;BME280;7220;49.450;11.052;2022-12-20T14:37:34;98289.19;;;4.67;99.89
14273;BME280;7220;49.450;11.052;2022-12-20T14:41:38;98282.06;;;4.71;99.82
14273;BME280;7220;49.450;11.052;2022-12-20T14:45:38;98314.59;;;4.68;100.00
14273;BME280;7220;49.450;11.052;2022-12-20T14:49:39;98294.59;;;4.63;100.00
14273;BME280;7220;49.450;11.052;2022-12-20T14:53:44;98260.44;;;4.60;100.00
14273;BME280;7220;49.450;11.052;2022-12-20T14:57:52;98275.41;;;4.57;100.00
14273;BME280;7220;49.450;11.052;2022-12-20T15:01:54;98276.53;;;4.49;100.00
14273;BME280;7220;49.450;11.052;2022-12-20T15:05:55;98292.31;;;4.49;100.00
14273;BME280;7220;49.450;11.052;2022-12-20T15:09:56;98270.75;;;4.36;100.00
14273;BME280;7220;49.450;11.052;2022-12-20T15:13:57;98275.03;;;4.40;100.00
14273;BME280;7220;49.450;11.052;2022-12-20T15:17:58;98266.38;;;4.35;100.00
14273;BME280;7220;49.450;11.052;2022-12-20T15:21:59;98269.13;;;4.32;100.00
14273;BME280;7220;49.450;11.052;2022-12-20T15:25:59;98255.31;;;4.23;100.00
14273;BME280;7220;49.450;11.052;2022-12-20T15:30:00;98283.34;;;4.23;100.00
14273;BME280;7220;49.450;11.052;2022-12-20T15:34:11;98292.19;;;4.20;100.00
14273;BME280;7220;49.450;11.052;2022-12-20T15:38:18;98272.97;;;4.18;100.00
14273;BME280;7220;49.450;11.052;2022-12-20T15:42:19;98264.34;;;4.13;100.00
14273;BME280;7220;49.450;11.052;2022-12-20T15:46:19;98273.19;;;4.10;100.00
14273;BME280;7220;49.450;11.052;2022-12-20T15:50:20;98262.69;;;4.09;100.00
14273;BME280;7220;49.450;11.052;2022-12-20T15:54:24;98272.34;;;4.08;100.00
14273;BME280;7220;49.450;11.052;2022-12-20T15:58:26;98277.69;;;4.05;100.00
14273;BME280;7220;49.450;11.052;2022-12-20T16:02:28;98273.38;;;4.03;100.00
14273;BME280;7220;49.450;11.052;2022-12-20T16:06:29;98266.50;;;3.97;100.00
14273;BME280;7220;49.450;11.052;2022-12-20T16:10:30;98269.09;;;3.99;100.00
14273;BME280;7220;49.450;11.052;2022-12-20T16:14:30;98267.50;;;3.93;100.00
14273;BME280;7220;49.450;11.052;2022-12-20T16:18:30;98244.88;;;3.86;100.00
14273;BME280;7220;49.450;11.052;2022-12-20T16:22:31;98258.75;;;3.92;100.00
14273;BME280;7220;49.450;11.052;2022-12-20T16:26:31;98260.63;;;3.87;100.00
14273;BME280;7220;49.450;11.052;2022-12-20T16:30:31;98251.09;;;3.83;100.00
14273;BME280;7220;49.450;11.052;2022-12-20T16:34:32;98247.59;;;3.83;100.00
14273;BME280;7220;49.450;11.052;2022-12-20T16:38:32;98246.06;;;3.74;100.00
14273;BME280;7220;49.450;11.052;2022-12-20T16:42:32;98247.88;;;3.72;100.00
14273;BME280;7220;49.450;11.052;2022-12-20T16:46:33;98221.81;;;3.62;100.00
14273;BME280;7220;49.450;11.052;2022-12-20T16:50:35;98227.16;;;3.59;100.00
14273;BME280;7220;49.450;11.052;2022-12-20T16:54:40;98218.50;;;3.56;100.00
14273;BME280;7220;49.450;11.052;2022-12-20T16:58:40;98209.00;;;3.48;100.00
14273;BME280;7220;49.450;11.052;2022-12-20T17:02:41;98233.59;;;3.46;100.00
14273;BME280;7220;49.450;11.052;2022-12-20T17:06:42;98238.19;;;3.38;100.00
14273;BME280;7220;49.450;11.052;2022-12-20T17:10:42;98239.16;;;3.34;100.00
14273;BME280;7220;49.450;11.052;2022-12-20T17:14:43;98254.19;;;3.28;100.00
14273;BME280;7220;49.450;11.052;2022-12-20T17:18:45;98249.88;;;3.24;100.00
14273;BME280;7220;49.450;11.052;2022-12-20T17:22:50;98236.91;;;3.18;100.00
14273;BME280;7220;49.450;11.052;2022-12-20T17:26:51;98224.66;;;3.17;100.00
14273;BME280;7220;49.450;11.052;2022-12-20T17:30:51;98215.06;;;3.16;100.00
14273;BME280;7220;49.450;11.052;2022-12-20T17:34:52;98222.09;;;3.15;100.00
14273;BME280;7220;49.450;11.052;2022-12-20T17:38:53;98228.97;;;3.20;100.00
14273;BME280;7220;49.450;11.052;2022-12-20T17:42:53;98227.22;;;3.20;100.00
14273;BME280;7220;49.450;11.052;2022-12-20T17:46:55;98255.19;;;3.21;100.00
14273;BME280;7220;49.450;11.052;2022-12-20T17:50:55;98245.63;;;3.20;100.00
14273;BME280;7220;49.450;11.052;2022-12-20T17:54:56;98249.19;;;3.16;100.00
14273;BME280;7220;49.450;11.052;2022-12-20T17:58:57;98233.53;;;3.11;100.00
14273;BME280;7220;49.450;11.052;2022-12-20T18:02:58;98225.66;;;3.11;100.00
14273;BME280;7220;49.450;11.052;2022-12-20T18:06:58;98231.00;;;3.08;100.00
14273;BME280;7220;49.450;11.052;2022-12-20T18:10:59;98242.31;;;3.12;100.00
14273;BME280;7220;49.450;11.052;2022-12-20T18:15:00;98242.31;;;3.12;100.00
14273;BME280;7220;49.450;11.052;2022-12-20T18:19:01;98251.81;;;3.16;100.00
14273;BME280;7220;49.450;11.052;2022-12-20T18:23:01;98242.09;;;3.20;100.00
14273;BME280;7220;49.450;11.052;2022-12-20T18:27:02;98228.97;;;3.20;100.00
14273;BME280;7220;49.450;11.052;2022-12-20T18:31:03;98250.78;;;3.23;100.00
14273;BME280;7220;49.450;11.052;2022-12-20T18:35:04;98234.97;;;3.26;100.00
14273;BME280;7220;49.450;11.052;2022-12-20T18:39:06;98241.06;;;3.28;100.00
14273;BME280;7220;49.450;11.052;2022-12-20T18:43:07;98216.63;;;3.23;100.00
14273;BME280;7220;49.450;11.052;2022-12-20T18:47:07;98226.09;;;3.30;100.00
14273;BME280;7220;49.450;11.052;2022-12-20T18:51:16;98226.88;;;3.36;100.00
14273;BME280;7220;49.450;11.052;2022-12-20T18:55:17;98222.50;;;3.35;100.00
14273;BME280;7220;49.450;11.052;2022-12-20T18:59:17;98198.25;;;3.23;100.00
14273;BME280;7220;49.450;11.052;2022-12-20T19:03:17;98194.50;;;3.34;100.00
14273;BME280;7220;49.450;11.052;2022-12-20T19:07:18;98175.44;;;3.25;100.00
14273;BME280;7220;49.450;11.052;2022-12-20T19:11:21;98178.06;;;3.25;100.00
14273;BME280;7220;49.450;11.052;2022-12-20T19:15:22;98172.81;;;3.25;100.00
14273;BME280;7220;49.450;11.052;2022-12-20T19:19:22;98178.13;;;3.24;100.00
14273;BME280;7220;49.450;11.052;2022-12-20T19:23:22;98172.88;;;3.24;100.00
14273;BME280;7220;49.450;11.052;2022-12-20T19:27:23;98171.84;;;3.29;100.00
14273;BME280;7220;49.450;11.052;2022-12-20T19:31:25;98145.56;;;3.29;100.00
14273;BME280;7220;49.450;11.052;2022-12-20T19:35:26;98155.09;;;3.34;100.00
14273;BME280;7220;49.450;11.052;2022-12-20T19:39:26;98154.06;;;3.41;100.00
14273;BME280;7220;49.450;11.052;2022-12-20T19:43:28;98131.22;;;3.43;100.00
14273;BME280;7220;49.450;11.052;2022-12-20T19:47:28;98125.88;;;3.46;100.00
14273;BME280;7220;49.450;11.052;2022-12-20T19:51:32;98140.69;;;3.48;100.00
14273;BME280;7220;49.450;11.052;2022-12-20T19:55:32;98166.84;;;3.55;100.00
14273;BME280;7220;49.450;11.052;2022-12-20T19:59:32;98148.44;;;3.55;100.00
14273;BME280;7220;49.450;11.052;2022-12-20T20:03:34;98164.94;;;3.60;100.00
14273;BME280;7220;49.450;11.052;2022-12-20T20:07:35;98155.34;;;3.59;100.00
14273;BME280;7220;49.450;11.052;2022-12-20T20:11:35;98171.88;;;3.64;100.00
14273;BME280;7220;49.450;11.052;2022-12-20T20:15:35;98182.28;;;3.67;100.00
14273;BME280;7220;49.450;11.052;2022-12-20T20:19:36;98168.19;;;3.70;100.00
14273;BME280;7220;49.450;11.052;2022-12-20T20:23:37;98170.81;;;3.70;100.00
14273;BME280;7220;49.450;11.052;2022-12-20T20:27:37;98149.88;;;3.67;100.00
14273;BME280;7220;49.450;11.052;2022-12-20T20:31:38;98132.28;;;3.69;100.00
14273;BME280;7220;49.450;11.052;2022-12-20T20:35:39;98129.53;;;3.73;100.00
14273;BME280;7220;49.450;11.052;2022-12-20T20:39:39;98134.03;;;3.70;100.00
14273;BME280;7220;49.450;11.052;2022-12-20T20:43:41;98154.06;;;3.74;100.00
14273;BME280;7220;49.450;11.052;2022-12-20T20:47:41;98141.09;;;3.68;100.00
14273;BME280;7220;49.450;11.052;2022-12-20T20:51:44;98155.81;;;3.73;100.00
14273;BME280;7220;49.450;11.052;2022-12-20T20:55:44;98157.56;;;3.74;100.00
14273;BME280;7220;49.450;11.052;2022-12-20T20:59:44;98143.56;;;3.74;100.00
14273;BME280;7220;49.450;11.052;2022-12-20T21:03:45;98147.09;;;3.73;100.00
14273;BME280;7220;49.450;11.052;2022-12-20T21:07:45;98146.25;;;3.71;100.00
14273;BME280;7220;49.450;11.052;2022-12-20T21:11:45;98147.13;;;3.71;100.00
14273;BME280;7220;49.450;11.052;2022-12-20T21:15:46;98142.78;;;3.70;100.00
14273;BME280;7220;49.450;11.052;2022-12-20T21:19:46;98134.13;;;3.67;100.00
14273;BME280;7220;49.450;11.052;2022-12-20T21:23:47;98146.34;;;3.68;100.00
14273;BME280;7220;49.450;11.052;2022-12-20T21:27:47;98124.50;;;3.66;100.00
14273;BME280;7220;49.450;11.052;2022-12-20T21:31:47;98145.41;;;3.70;100.00
14273;BME280;7220;49.450;11.052;2022-12-20T21:35:48;98141.00;;;3.71;100.00
14273;BME280;7220;49.450;11.052;2022-12-20T21:39:48;98126.97;;;3.72;100.00
14273;BME280;7220;49.450;11.052;2022-12-20T21:43:49;98124.41;;;3.69;100.00
14273;BME280;7220;49.450;11.052;2022-12-20T21:47:50;98141.09;;;3.68;100.00
14273;BME280;7220;49.450;11.052;2022-12-20T21:51:50;98143.63;;;3.71;100.00
14273;BME280;7220;49.450;11.052;2022-12-20T21:55:57;98134.91;;;3.70;100.00
14273;BME280;7220;49.450;11.052;2022-12-20T21:59:57;98141.78;;;3.74;100.00
14273;BME280;7220;49.450;11.052;2022-12-20T22:04:03;98142.56;;;3.78;100.00
14273;BME280;7220;49.450;11.052;2022-12-20T22:08:04;98148.66;;;3.80;100.00
14273;BME280;7220;49.450;11.052;2022-12-20T22:12:04;98151.28;;;3.80;100.00
14273;BME280;7220;49.450;11.052;2022-12-20T22:16:10;98152.16;;;3.79;100.00
14273;BME280;7220;49.450;11.052;2022-12-20T22:20:11;98166.16;;;3.81;100.00
14273;BME280;7220;49.450;11.052;2022-12-20T22:24:12;98176.66;;;3.81;100.00
14273;BME280;7220;49.450;11.052;2022-12-20T22:28:12;98167.03;;;3.80;100.00
14273;BME280;7220;49.450;11.052;2022-12-20T22:32:12;98145.19;;;3.78;100.00
14273;BME280;7220;49.450;11.052;2022-12-20T22:36:14;98164.47;;;3.78;100.00